Time;durP1;ratioP1;P1;durP2;ratioP2;P2;SDS_P1;SDS_P2;PMS_P1;PMS_P2;Temp;Humidity;BMP_temperature;BMP_pressure;BME280_temperature;BME280_humidity;BME280_pressure;Samples;Min_cycle;Max_cycle;Signal;HPM_P1;HPM_P2
2021/12/18 00:00:36;;;;;;;10.43;6.43;;;8.10;99.90;;;;;;5082700;28;20070;-72
2021/12/18 00:03:02;;;;;;;10.73;6.00;;;8.10;99.90;;;;;;5088787;28;20056;-71
2021/12/18 00:05:28;;;;;;;10.90;7.28;;;8.10;99.90;;;;;;5099431;28;20028;-71
2021/12/18 00:07:54;;;;;;;12.07;6.32;;;8.10;99.90;;;;;;5090600;28;20085;-71
2021/12/18 00:10:23;;;;;;;7.90;6.25;;;8.20;99.90;;;;;;5100833;28;20027;-71
2021/12/18 00:12:49;;;;;;;8.77;7.32;;;8.20;99.90;;;;;;5091075;28;20032;-71
2021/12/18 00:15:22;;;;;;;5.90;5.22;;;8.20;99.90;;;;;;5090287;28;20024;-71
2021/12/18 00:17:48;;;;;;;6.90;5.72;;;8.20;99.90;;;;;;5101613;28;20140;-71
2021/12/18 00:20:15;;;;;;;9.13;6.38;;;8.20;99.90;;;;;;5100347;28;20051;-71
2021/12/18 00:22:42;;;;;;;7.55;6.07;;;8.30;99.90;;;;;;5096021;28;20087;-71
2021/12/18 00:25:08;;;;;;;12.30;6.18;;;8.30;99.90;;;;;;5098153;28;20024;-71
2021/12/18 00:27:34;;;;;;;8.27;5.75;;;8.30;99.90;;;;;;5081441;28;20542;-70
2021/12/18 00:30:00;;;;;;;6.35;5.40;;;8.20;99.90;;;;;;5090541;28;20031;-70
2021/12/18 00:32:26;;;;;;;7.72;6.38;;;8.30;99.90;;;;;;5096446;28;20064;-70
2021/12/18 00:34:52;;;;;;;8.80;6.10;;;8.30;99.90;;;;;;5093647;28;20430;-71
2021/12/18 00:37:18;;;;;;;11.20;6.35;;;8.30;99.90;;;;;;5081185;28;20024;-71
2021/12/18 00:39:54;;;;;;;7.05;5.55;;;8.30;99.90;;;;;;5093052;28;20024;-71
2021/12/18 00:44:46;;;;;;;5.53;4.75;;;8.30;99.90;;;;;;5100928;28;20032;-71
2021/12/18 00:47:12;;;;;;;10.25;4.80;;;8.30;99.90;;;;;;5095328;28;20029;-71
2021/12/18 00:49:37;;;;;;;7.35;5.60;;;8.30;99.90;;;;;;5101681;28;20153;-71
2021/12/18 00:52:04;;;;;;;10.57;6.13;;;8.30;99.90;;;;;;5102388;28;20045;-69
2021/12/18 00:54:31;;;;;;;7.22;5.60;;;8.30;99.90;;;;;;5091613;28;20047;-69
2021/12/18 00:56:57;;;;;;;10.02;5.63;;;8.30;99.90;;;;;;5104883;28;20023;-70
2021/12/18 00:59:23;;;;;;;9.00;7.70;;;8.30;99.90;;;;;;5093371;28;20098;-70
2021/12/18 01:01:48;;;;;;;9.98;6.03;;;8.30;99.90;;;;;;5086186;28;20111;-70
2021/12/18 01:04:14;;;;;;;12.15;6.68;;;8.30;99.90;;;;;;5094639;28;20024;-71
2021/12/18 01:06:40;;;;;;;7.68;5.25;;;8.30;99.90;;;;;;5096311;28;20019;-70
2021/12/18 01:09:06;;;;;;;7.85;5.13;;;8.20;99.90;;;;;;5097893;28;20024;-70
2021/12/18 01:11:43;;;;;;;8.80;5.80;;;8.30;99.90;;;;;;5095149;28;20036;-71
2021/12/18 01:17:00;;;;;;;9.73;6.38;;;8.40;99.90;;;;;;5095557;28;20521;-71
2021/12/18 01:24:55;;;;;;;7.57;5.45;;;8.40;99.90;;;;;;5096151;28;20050;-71
2021/12/18 01:27:21;;;;;;;8.88;5.35;;;8.30;99.90;;;;;;5100036;28;20039;-71
2021/12/18 01:29:47;;;;;;;5.93;5.05;;;8.30;99.90;;;;;;5087505;28;20020;-71
2021/12/18 01:32:13;;;;;;;5.68;4.80;;;8.30;99.90;;;;;;5092752;28;20028;-71
2021/12/18 01:34:39;;;;;;;6.15;4.90;;;8.40;99.90;;;;;;5081146;28;20068;-71
2021/12/18 01:37:05;;;;;;;7.80;5.03;;;8.30;99.90;;;;;;5100423;28;20020;-71
2021/12/18 01:39:31;;;;;;;7.10;5.53;;;8.40;99.90;;;;;;5087452;28;20036;-70
2021/12/18 01:44:57;;;;;;;6.40;5.15;;;8.40;99.90;;;;;;5092192;28;20047;-71
2021/12/18 01:52:53;;;;;;;4.50;4.10;;;8.40;99.90;;;;;;5098330;28;20032;-70
2021/12/18 01:55:21;;;;;;;6.72;4.85;;;8.30;99.90;;;;;;5096413;28;20020;-71
2021/12/18 01:57:47;;;;;;;8.48;5.43;;;8.30;99.90;;;;;;5106867;28;20106;-71
2021/12/18 02:00:24;;;;;;;6.25;4.05;;;8.30;99.90;;;;;;5107461;28;20043;-70
2021/12/18 02:02:50;;;;;;;4.82;4.00;;;8.30;99.90;;;;;;5098338;28;20028;-71
2021/12/18 02:05:15;;;;;;;5.60;4.35;;;8.20;99.90;;;;;;5104887;28;20019;-71
2021/12/18 02:07:42;;;;;;;5.25;4.47;;;8.30;99.90;;;;;;5097892;28;20673;-71
2021/12/18 02:10:16;;;;;;;7.88;4.88;;;8.30;99.90;;;;;;5096668;28;20020;-71
2021/12/18 02:20:49;;;;;;;6.78;5.65;;;8.20;99.90;;;;;;5097452;28;20038;-71
2021/12/18 02:23:16;;;;;;;6.55;4.75;;;8.20;99.90;;;;;;5099343;28;20113;-71
2021/12/18 02:25:45;;;;;;;5.35;4.78;;;8.30;99.90;;;;;;5092509;28;20029;-71
2021/12/18 02:28:18;;;;;;;6.20;4.55;;;8.20;99.90;;;;;;5089453;28;20026;-71
2021/12/18 02:30:46;;;;;;;5.85;4.85;;;8.20;99.90;;;;;;5086960;28;20611;-71
2021/12/18 02:33:12;;;;;;;10.60;5.53;;;8.10;99.90;;;;;;5091088;28;20362;-71
2021/12/18 02:35:45;;;;;;;5.97;5.03;;;8.10;99.90;;;;;;5094553;28;20370;-71
2021/12/18 02:38:16;;;;;;;10.85;5.25;;;8.00;99.90;;;;;;5091363;28;20035;-70
2021/12/18 02:43:31;;;;;;;6.00;4.55;;;8.10;99.90;;;;;;5099163;28;20043;-71
2021/12/18 02:46:00;;;;;;;6.07;5.47;;;8.20;99.90;;;;;;5105175;28;20499;-71
2021/12/18 02:48:29;;;;;;;8.85;5.45;;;8.30;99.90;;;;;;5099061;28;20016;-71
2021/12/18 02:50:56;;;;;;;5.47;4.32;;;8.30;99.90;;;;;;5099393;28;20489;-70
2021/12/18 02:53:22;;;;;;;12.10;5.82;;;8.10;99.90;;;;;;5096196;28;20032;-71
2021/12/18 02:55:59;;;;;;;7.13;5.13;;;8.00;99.90;;;;;;5097173;28;20081;-71
2021/12/18 02:58:26;;;;;;;7.25;4.85;;;8.00;99.90;;;;;;5083185;28;20032;-70
2021/12/18 03:00:53;;;;;;;6.35;4.72;;;7.90;99.90;;;;;;5100921;28;20035;-70
2021/12/18 03:03:20;;;;;;;7.82;5.10;;;7.70;99.90;;;;;;5105579;28;20081;-71
2021/12/18 03:06:00;;;;;;;9.80;6.20;;;7.60;99.90;;;;;;5091108;28;20583;-70
2021/12/18 03:08:40;;;;;;;6.95;5.38;;;7.50;99.90;;;;;;5089028;28;20051;-70
2021/12/18 03:24:43;;;;;;;7.55;5.57;;;7.40;99.90;;;;;;5094765;28;20373;-70
2021/12/18 03:27:08;;;;;;;15.25;7.05;;;7.40;99.90;;;;;;5106287;28;20013;-70
2021/12/18 03:29:34;;;;;;;7.22;6.40;;;7.40;99.90;;;;;;5101501;28;20024;-70
2021/12/18 03:32:00;;;;;;;8.38;6.65;;;7.20;99.90;;;;;;5097508;28;20027;-70
2021/12/18 03:34:26;;;;;;;5.72;5.22;;;7.20;99.90;;;;;;5099834;28;20524;-70
2021/12/18 03:36:52;;;;;;;7.80;6.30;;;7.20;99.90;;;;;;5096252;28;20036;-71
2021/12/18 03:39:18;;;;;;;7.75;6.03;;;7.10;99.90;;;;;;5094041;28;20024;-70
2021/12/18 03:41:44;;;;;;;7.75;6.47;;;7.10;99.90;;;;;;5097651;28;20034;-70
2021/12/18 03:44:10;;;;;;;6.32;5.70;;;7.10;99.90;;;;;;5099168;28;20027;-70
2021/12/18 03:46:36;;;;;;;6.13;5.32;;;7.30;99.90;;;;;;5102951;28;20027;-69
2021/12/18 03:49:03;;;;;;;8.63;5.13;;;7.50;99.90;;;;;;5095368;28;20109;-70
2021/12/18 03:51:28;;;;;;;7.10;5.97;;;7.40;99.90;;;;;;5101084;28;20101;-69
2021/12/18 03:53:54;;;;;;;7.95;5.78;;;7.30;99.90;;;;;;5082544;28;20031;-71
2021/12/18 03:56:20;;;;;;;6.90;5.13;;;7.40;99.90;;;;;;5092397;28;20442;-72
2021/12/18 03:58:46;;;;;;;8.25;6.47;;;7.40;99.90;;;;;;5089716;28;20108;-70
2021/12/18 04:01:12;;;;;;;9.98;5.85;;;7.30;99.90;;;;;;5085461;28;20036;-70
2021/12/18 04:03:38;;;;;;;8.85;6.07;;;7.20;99.90;;;;;;5100410;28;20412;-70
2021/12/18 04:06:04;;;;;;;7.55;6.07;;;7.30;99.90;;;;;;5101322;28;20102;-71
2021/12/18 04:08:30;;;;;;;8.85;6.28;;;7.20;99.90;;;;;;5087249;28;20031;-71
2021/12/18 04:10:55;;;;;;;13.13;6.30;;;7.30;99.90;;;;;;5098319;28;20052;-70
2021/12/18 04:13:21;;;;;;;7.07;5.30;;;7.30;99.90;;;;;;5100764;28;20059;-69
2021/12/18 04:15:47;;;;;;;9.65;5.78;;;7.20;99.90;;;;;;5097977;28;20421;-73
2021/12/18 04:18:12;;;;;;;8.10;6.38;;;7.40;99.90;;;;;;5097786;28;20460;-70
2021/12/18 04:20:38;;;;;;;13.05;6.20;;;7.30;99.90;;;;;;5100553;28;20051;-70
2021/12/18 04:23:04;;;;;;;10.50;6.53;;;7.50;99.90;;;;;;5096793;28;20025;-68
2021/12/18 04:25:30;;;;;;;10.88;6.55;;;7.80;99.90;;;;;;5101394;28;20028;-70
2021/12/18 04:27:56;;;;;;;10.02;5.65;;;7.60;99.90;;;;;;5095153;28;20029;-68
2021/12/18 04:30:22;;;;;;;9.40;6.82;;;7.50;99.90;;;;;;5095527;28;20020;-69
2021/12/18 04:32:47;;;;;;;7.28;5.75;;;7.40;99.90;;;;;;5090114;28;20107;-70
2021/12/18 04:35:13;;;;;;;9.02;5.72;;;7.30;99.90;;;;;;5099600;28;20401;-70
2021/12/18 04:37:39;;;;;;;7.57;6.47;;;7.20;99.90;;;;;;5094775;28;20594;-69
2021/12/18 04:40:05;;;;;;;7.03;5.15;;;7.20;99.90;;;;;;5092784;28;20099;-71
2021/12/18 04:42:31;;;;;;;6.47;5.53;;;7.30;99.90;;;;;;5086334;28;20029;-70
2021/12/18 04:44:57;;;;;;;8.20;5.25;;;7.30;99.90;;;;;;5087786;28;20173;-72
2021/12/18 04:47:23;;;;;;;6.47;5.68;;;7.20;99.90;;;;;;5093592;28;20055;-72
2021/12/18 04:49:49;;;;;;;9.57;6.18;;;7.20;99.90;;;;;;5085112;28;20051;-69
2021/12/18 04:52:15;;;;;;;5.90;5.22;;;7.10;99.90;;;;;;5097557;28;20412;-70
2021/12/18 04:54:41;;;;;;;8.88;5.93;;;7.10;99.90;;;;;;5100353;28;20035;-69
2021/12/18 04:57:16;;;;;;;11.60;6.57;;;7.30;99.90;;;;;;5092367;28;20031;-69
2021/12/18 04:59:44;;;;;;;7.57;6.18;;;7.40;99.90;;;;;;5087655;28;20460;-69
2021/12/18 05:02:15;;;;;;;7.95;5.40;;;7.40;99.90;;;;;;5101199;28;20026;-70
2021/12/18 05:04:41;;;;;;;10.57;6.53;;;7.50;99.90;;;;;;5091952;28;20028;-68
2021/12/18 05:07:10;;;;;;;6.55;5.25;;;7.50;99.90;;;;;;5095828;28;20054;-72
2021/12/18 05:09:37;;;;;;;6.47;5.78;;;7.40;99.90;;;;;;5093758;28;20032;-69
2021/12/18 05:12:11;;;;;;;7.32;5.90;;;7.30;99.90;;;;;;5093311;28;20030;-72
2021/12/18 05:14:37;;;;;;;6.07;5.22;;;7.40;99.90;;;;;;5090790;28;20035;-69
2021/12/18 05:17:03;;;;;;;9.88;5.60;;;7.50;99.90;;;;;;5099827;28;20028;-68
2021/12/18 05:19:33;;;;;;;9.40;6.10;;;7.50;99.90;;;;;;5095066;28;20438;-70
2021/12/18 05:21:59;;;;;;;9.52;5.93;;;7.50;99.90;;;;;;5097293;28;20024;-70
2021/12/18 05:24:24;;;;;;;10.32;6.15;;;7.40;99.90;;;;;;5088403;28;20050;-72
2021/12/18 05:26:50;;;;;;;10.65;6.10;;;7.30;99.90;;;;;;5100344;28;20031;-68
2021/12/18 05:29:16;;;;;;;6.28;5.65;;;7.40;99.90;;;;;;5101942;28;20114;-69
2021/12/18 05:31:45;;;;;;;13.18;6.00;;;7.30;99.90;;;;;;5094108;28;20064;-70
2021/12/18 05:34:12;;;;;;;6.18;4.95;;;7.20;99.90;;;;;;5096268;28;20077;-72
2021/12/18 05:37:12;;;;;;;18.58;6.82;;;7.20;99.90;;;;;;5096444;28;20027;-68
2021/12/18 05:39:29;;;;;;;9.27;6.63;;;7.40;99.90;;;;;;5099716;28;20082;-69
2021/12/18 05:41:57;;;;;;;12.70;5.88;;;7.40;99.90;;;;;;5098829;28;20069;-72
2021/12/18 05:44:27;;;;;;;6.72;5.43;;;7.50;99.90;;;;;;5080098;28;20072;-70
2021/12/18 05:46:53;;;;;;;10.75;6.30;;;7.40;99.90;;;;;;5094573;28;20012;-72
2021/12/18 05:49:19;;;;;;;7.28;5.82;;;7.30;99.90;;;;;;5095594;28;20028;-71
2021/12/18 05:51:45;;;;;;;7.35;6.05;;;7.20;99.90;;;;;;5098251;28;20031;-69
2021/12/18 05:54:12;;;;;;;7.95;5.63;;;7.20;99.90;;;;;;5098891;28;20039;-69
2021/12/18 05:56:39;;;;;;;8.10;5.95;;;7.10;99.90;;;;;;5097110;28;20073;-69
2021/12/18 05:59:05;;;;;;;7.68;5.63;;;7.20;99.90;;;;;;5096999;28;20035;-69
2021/12/18 06:01:31;;;;;;;9.27;5.82;;;7.20;99.90;;;;;;5092877;28;20035;-70
2021/12/18 06:03:57;;;;;;;7.07;5.95;;;7.30;99.90;;;;;;5089640;28;20066;-69
2021/12/18 06:06:23;;;;;;;9.63;6.60;;;7.40;99.90;;;;;;5094567;28;20013;-70
2021/12/18 06:08:49;;;;;;;9.75;6.28;;;7.50;99.90;;;;;;5094199;28;20062;-68
2021/12/18 06:11:17;;;;;;;7.90;5.60;;;7.50;99.90;;;;;;5100260;28;20028;-69
2021/12/18 06:13:44;;;;;;;9.93;6.78;;;7.60;99.90;;;;;;5084573;28;20032;-71
2021/12/18 06:16:11;;;;;;;8.63;6.05;;;7.50;99.90;;;;;;5083734;28;20036;-71
2021/12/18 06:18:42;;;;;;;7.82;6.85;;;7.40;99.90;;;;;;5070038;28;20109;-69
2021/12/18 06:21:09;;;;;;;9.43;6.60;;;7.50;99.90;;;;;;5069853;28;20153;-69
2021/12/18 06:23:35;;;;;;;8.85;6.65;;;7.50;99.90;;;;;;5073668;28;20028;-74
2021/12/18 06:26:01;;;;;;;11.02;7.72;;;7.30;99.90;;;;;;5096628;28;20080;-72
2021/12/18 06:28:27;;;;;;;7.30;6.53;;;7.20;99.90;;;;;;5095886;28;20423;-70
2021/12/18 06:30:53;;;;;;;11.32;6.70;;;7.20;99.90;;;;;;5091197;28;20028;-70
2021/12/18 06:33:19;;;;;;;10.60;7.13;;;7.10;99.90;;;;;;5089146;28;20382;-70
2021/12/18 06:35:46;;;;;;;9.82;7.22;;;7.10;99.90;;;;;;5078263;28;20084;-70
2021/12/18 06:38:11;;;;;;;9.55;7.25;;;7.10;99.90;;;;;;5087226;28;20497;-70
2021/12/18 06:40:38;;;;;;;10.55;7.85;;;7.00;99.90;;;;;;5096832;28;20027;-68
2021/12/18 06:43:03;;;;;;;10.35;7.35;;;7.10;99.90;;;;;;5095128;28;20039;-69
2021/12/18 06:45:29;;;;;;;12.95;9.15;;;7.10;99.90;;;;;;5092368;28;20393;-71
2021/12/18 06:47:55;;;;;;;13.07;8.50;;;7.10;99.90;;;;;;5097350;28;20026;-69
2021/12/18 06:50:21;;;;;;;15.93;8.38;;;7.10;99.90;;;;;;5097787;28;20028;-70
2021/12/18 06:52:47;;;;;;;10.80;7.30;;;7.20;99.90;;;;;;5098906;28;20386;-69
2021/12/18 06:55:13;;;;;;;11.68;8.10;;;7.20;99.90;;;;;;5095884;28;20020;-73
2021/12/18 06:57:39;;;;;;;10.80;6.88;;;7.30;99.90;;;;;;5099733;28;20057;-71
2021/12/18 07:00:07;;;;;;;10.30;7.32;;;7.40;99.90;;;;;;5093604;28;20033;-70
2021/12/18 07:02:33;;;;;;;10.52;6.45;;;7.40;99.90;;;;;;5092016;28;20114;-71
2021/12/18 07:04:59;;;;;;;11.18;6.70;;;7.50;99.90;;;;;;5091236;28;20489;-71
2021/12/18 07:07:24;;;;;;;7.80;6.25;;;7.50;99.90;;;;;;5099987;28;20047;-69
2021/12/18 07:09:50;;;;;;;10.50;7.50;;;7.60;99.90;;;;;;5096450;28;20059;-68
2021/12/18 07:12:16;;;;;;;8.52;7.10;;;7.60;99.90;;;;;;5087450;28;20385;-69
2021/12/18 07:14:42;;;;;;;11.20;7.18;;;7.40;99.90;;;;;;5086711;28;20052;-71
2021/12/18 07:17:07;;;;;;;11.70;7.43;;;7.30;99.90;;;;;;5090403;28;20051;-74
2021/12/18 07:19:33;;;;;;;13.75;8.02;;;7.20;99.90;;;;;;5093995;28;20074;-71
2021/12/18 07:22:00;;;;;;;9.18;7.85;;;7.10;99.90;;;;;;5092682;28;20396;-68
2021/12/18 07:24:25;;;;;;;8.55;6.35;;;7.10;99.90;;;;;;5092219;28;20024;-68
2021/12/18 07:26:51;;;;;;;10.88;7.38;;;7.30;99.90;;;;;;5092092;28;20020;-69
2021/12/18 07:29:17;;;;;;;10.27;7.53;;;7.50;99.90;;;;;;5092219;28;20025;-70
2021/12/18 07:31:43;;;;;;;8.23;6.43;;;7.60;99.90;;;;;;5091174;28;20029;-72
2021/12/18 07:34:08;;;;;;;9.65;6.22;;;7.80;99.90;;;;;;5072628;28;20037;-72
2021/12/18 07:36:34;;;;;;;10.48;6.60;;;7.80;99.90;;;;;;5076352;28;20029;-70
2021/12/18 07:39:00;;;;;;;9.98;7.32;;;7.90;99.90;;;;;;5079112;28;20032;-69
2021/12/18 07:41:26;;;;;;;8.70;6.25;;;7.90;99.90;;;;;;5079713;28;20092;-69
2021/12/18 07:43:52;;;;;;;8.15;6.28;;;7.90;99.90;;;;;;5087949;28;20107;-69
2021/12/18 07:46:18;;;;;;;9.13;6.70;;;7.90;99.90;;;;;;5104878;28;20026;-70
2021/12/18 07:48:45;;;;;;;10.98;8.07;;;8.00;99.90;;;;;;5091582;28;20457;-69
2021/12/18 07:51:11;;;;;;;13.57;8.63;;;8.00;99.90;;;;;;5102151;28;20012;-69
2021/12/18 07:53:37;;;;;;;8.80;6.53;;;8.00;99.90;;;;;;5093268;28;20047;-70
2021/12/18 07:56:04;;;;;;;6.53;5.68;;;8.10;99.90;;;;;;5091781;28;20036;-69
2021/12/18 07:58:30;;;;;;;7.93;6.65;;;8.20;99.90;;;;;;5092914;28;20179;-70
2021/12/18 08:00:56;;;;;;;8.63;6.20;;;8.30;99.90;;;;;;5092861;28;20028;-70
2021/12/18 08:03:22;;;;;;;11.75;5.85;;;8.40;99.90;;;;;;5093262;28;20086;-70
2021/12/18 08:05:48;;;;;;;6.53;5.82;;;8.40;99.90;;;;;;5091401;28;20020;-72
2021/12/18 08:08:14;;;;;;;7.65;6.03;;;8.50;99.90;;;;;;5081439;28;20020;-71
2021/12/18 08:10:39;;;;;;;6.75;6.05;;;8.40;99.90;;;;;;5079516;28;20044;-71
2021/12/18 08:13:05;;;;;;;9.07;5.13;;;8.40;99.90;;;;;;5098979;28;20081;-69
2021/12/18 08:15:31;;;;;;;10.45;6.60;;;8.40;99.90;;;;;;5090984;28;20020;-70
2021/12/18 08:17:58;;;;;;;9.50;5.90;;;8.50;99.90;;;;;;5092598;28;20028;-72
2021/12/18 08:20:25;;;;;;;6.03;5.18;;;8.60;99.90;;;;;;5088348;28;20021;-70
2021/12/18 08:22:51;;;;;;;9.52;7.20;;;8.60;99.90;;;;;;5098519;28;20027;-72
2021/12/18 08:25:17;;;;;;;13.43;6.40;;;8.80;99.90;;;;;;5097586;28;20016;-69
2021/12/18 08:27:42;;;;;;;7.88;5.63;;;8.70;99.90;;;;;;5101828;28;20028;-69
2021/12/18 08:30:09;;;;;;;8.35;5.38;;;8.70;99.90;;;;;;5081425;28;20035;-70
2021/12/18 08:32:35;;;;;;;7.78;6.25;;;8.70;99.90;;;;;;5072190;28;20029;-70
2021/12/18 08:35:01;;;;;;;8.77;6.60;;;8.80;99.90;;;;;;5073433;28;20039;-70
2021/12/18 08:37:27;;;;;;;12.63;7.53;;;8.80;99.90;;;;;;5072485;28;20126;-69
2021/12/18 08:39:52;;;;;;;7.38;6.22;;;9.00;99.90;;;;;;5083635;28;20032;-71
2021/12/18 08:42:18;;;;;;;8.68;5.70;;;9.20;99.90;;;;;;5081860;28;20396;-68
2021/12/18 08:44:44;;;;;;;11.35;6.22;;;9.20;99.90;;;;;;5071800;28;20021;-70
2021/12/18 08:47:10;;;;;;;7.90;6.38;;;9.20;99.90;;;;;;5075368;28;20017;-69
2021/12/18 08:49:37;;;;;;;6.40;4.55;;;9.30;99.90;;;;;;5071562;28;20024;-69
2021/12/18 08:52:04;;;;;;;10.43;5.63;;;9.30;99.90;;;;;;5071900;28;20020;-69
2021/12/18 08:54:29;;;;;;;5.68;5.10;;;9.30;99.90;;;;;;5071585;28;20101;-70
2021/12/18 08:56:55;;;;;;;7.05;5.50;;;9.40;99.90;;;;;;5086604;28;20032;-70
2021/12/18 08:59:21;;;;;;;8.48;6.10;;;9.50;99.90;;;;;;5083544;28;20437;-72
2021/12/18 09:01:47;;;;;;;10.10;4.57;;;9.50;99.90;;;;;;5084405;28;20119;-69
2021/12/18 09:04:12;;;;;;;7.25;5.07;;;9.60;99.90;;;;;;5078924;28;20036;-69
2021/12/18 09:06:38;;;;;;;9.20;5.93;;;9.60;99.90;;;;;;5077290;28;20054;-68
2021/12/18 09:09:06;;;;;;;7.40;4.75;;;9.70;99.90;;;;;;5096783;28;20024;-68
2021/12/18 09:11:32;;;;;;;8.57;5.40;;;9.70;99.90;;;;;;5105453;28;20031;-71
2021/12/18 09:13:58;;;;;;;7.07;4.93;;;9.70;99.90;;;;;;5071544;28;20028;-70
2021/12/18 09:16:23;;;;;;;7.80;4.72;;;9.70;99.90;;;;;;5073489;28;20464;-72
2021/12/18 09:18:49;;;;;;;4.93;4.15;;;9.90;99.90;;;;;;5071088;28;20029;-70
2021/12/18 09:21:15;;;;;;;10.85;6.93;;;9.90;99.90;;;;;;5071774;28;20501;-70
2021/12/18 09:23:41;;;;;;;7.65;5.30;;;9.90;99.90;;;;;;5089955;28;20070;-68
2021/12/18 09:26:07;;;;;;;5.75;5.13;;;10.00;99.90;;;;;;5088597;28;20050;-71
2021/12/18 09:28:32;;;;;;;9.07;4.85;;;10.00;99.90;;;;;;5085903;28;20220;-72
2021/12/18 09:30:58;;;;;;;9.13;5.05;;;10.10;99.90;;;;;;5072211;28;20051;-70
2021/12/18 09:33:24;;;;;;;7.07;5.60;;;10.10;99.90;;;;;;5070720;28;20543;-70
2021/12/18 09:35:50;;;;;;;11.93;4.80;;;10.20;99.90;;;;;;5081848;28;20020;-70
2021/12/18 09:38:15;;;;;;;5.72;4.43;;;10.20;99.90;;;;;;5089252;28;20028;-71
2021/12/18 09:40:41;;;;;;;6.88;4.25;;;10.30;99.90;;;;;;5084007;28;20106;-70
2021/12/18 09:43:07;;;;;;;7.90;4.63;;;10.40;99.90;;;;;;5086747;28;20028;-73
2021/12/18 09:45:33;;;;;;;6.07;5.28;;;10.40;99.90;;;;;;5086455;28;20043;-70
2021/12/18 09:47:59;;;;;;;5.75;4.80;;;10.40;99.90;;;;;;5087982;28;20028;-71
2021/12/18 09:50:27;;;;;;;8.10;4.85;;;10.50;99.90;;;;;;5084433;28;20020;-70
2021/12/18 09:52:53;;;;;;;5.07;4.43;;;10.50;99.90;;;;;;5070289;28;20031;-69
2021/12/18 09:55:19;;;;;;;7.50;4.63;;;10.50;99.90;;;;;;5076412;28;20028;-68
2021/12/18 09:57:47;;;;;;;8.15;5.13;;;10.60;99.90;;;;;;5077121;28;20025;-67
2021/12/18 10:00:17;;;;;;;6.75;4.43;;;10.70;99.90;;;;;;5086798;28;20070;-69
2021/12/18 10:02:43;;;;;;;5.13;4.63;;;10.90;99.90;;;;;;5083028;28;20411;-67
2021/12/18 10:05:23;;;;;;;6.55;4.70;;;11.00;99.90;;;;;;5074869;28;20036;-68
2021/12/18 10:08:15;;;;;;;5.90;5.30;;;11.10;99.90;;;;;;5074214;28;20458;-70
2021/12/18 10:11:18;;;;;;;;;;;11.10;99.90;;;;;;5069927;28;20078;-68
2021/12/18 10:14:02;;;;;;;4.97;3.70;;;11.10;99.90;;;;;;5047771;28;20321;-68
2021/12/18 10:16:29;;;;;;;9.70;4.72;;;11.00;99.90;;;;;;5079263;28;20046;-66
2021/12/18 10:18:59;;;;;;;5.57;4.40;;;11.10;99.90;;;;;;5088097;28;20043;-65
2021/12/18 10:21:27;;;;;;;11.23;5.60;;;11.10;99.90;;;;;;5087876;28;20023;-66
2021/12/18 10:23:54;;;;;;;6.68;4.63;;;11.10;99.90;;;;;;5075722;28;20024;-65
2021/12/18 10:26:43;;;;;;;5.72;4.07;;;11.10;99.90;;;;;;5076543;28;20036;-66
2021/12/18 10:29:31;;;;;;;5.32;4.38;;;11.10;99.90;;;;;;5070120;28;20117;-65
2021/12/18 10:32:05;;;;;;;7.05;4.20;;;11.20;99.90;;;;;;5070131;28;20025;-66
2021/12/18 10:34:31;;;;;;;6.80;4.30;;;11.20;99.90;;;;;;5073638;28;20028;-65
2021/12/18 10:37:29;;;;;;;5.53;4.30;;;11.20;99.90;;;;;;5082945;28;20033;-65
2021/12/18 10:39:54;;;;;;;7.57;5.05;;;11.30;99.90;;;;;;5096532;28;20155;-65
2021/12/18 10:42:25;;;;;;;8.10;4.78;;;11.30;99.90;;;;;;5110613;28;20048;-65
2021/12/18 10:45:12;;;;;;;7.15;4.60;;;11.10;99.90;;;;;;5098144;28;20530;-66
2021/12/18 10:48:17;;;;;;;4.20;3.80;;;11.00;99.90;;;;;;5070496;28;20082;-65
2021/12/18 10:50:50;;;;;;;7.78;4.88;;;11.10;99.90;;;;;;5075642;28;20102;-64
2021/12/18 10:53:23;;;;;;;6.15;4.43;;;11.20;99.90;;;;;;5069661;28;20035;-66
2021/12/18 10:55:56;;;;;;;5.85;3.28;;;11.30;99.90;;;;;;5069624;28;20028;-65
2021/12/18 10:58:27;;;;;;;4.55;4.07;;;11.40;99.90;;;;;;5074212;28;20032;-65
2021/12/18 11:01:10;;;;;;;11.60;3.92;;;11.60;99.90;;;;;;5070938;28;20069;-67
2021/12/18 11:03:44;;;;;;;6.38;4.28;;;11.70;99.90;;;;;;5080486;28;20031;-65
2021/12/18 11:06:13;;;;;;;4.68;3.38;;;11.60;99.90;;;;;;5090800;28;20103;-66
2021/12/18 11:08:53;;;;;;;4.18;3.55;;;11.60;99.90;;;;;;5093404;28;20024;-66
2021/12/18 11:14:05;;;;;;;;;;;11.50;99.90;;;;;;5091658;28;20039;-65
2021/12/18 11:16:35;;;;;;;6.65;5.45;;;11.60;99.90;;;;;;5093855;28;20065;-66
2021/12/18 11:19:04;;;;;;;6.68;5.32;;;11.40;99.90;;;;;;5093408;28;20020;-65
2021/12/18 11:21:30;;;;;;;8.57;6.13;;;11.20;99.90;;;;;;5087210;28;20036;-66
2021/12/18 11:24:04;;;;;;;7.32;5.65;;;11.10;99.90;;;;;;5084927;28;20020;-66
2021/12/18 11:26:42;;;;;;;9.95;5.70;;;10.90;99.90;;;;;;5080065;28;20624;-65
2021/12/18 11:29:20;;;;;;;6.18;4.22;;;10.80;99.90;;;;;;5073986;28;20492;-64
2021/12/18 11:31:46;;;;;;;7.80;5.85;;;10.80;99.90;;;;;;5072889;28;20027;-66
2021/12/18 11:34:13;;;;;;;8.05;5.15;;;10.70;99.90;;;;;;5076042;28;20469;-68
2021/12/18 11:36:44;;;;;;;8.23;5.65;;;10.70;99.90;;;;;;5093097;28;20032;-68
2021/12/18 11:39:12;;;;;;;10.90;5.63;;;10.60;99.90;;;;;;5091970;28;20066;-67
2021/12/18 11:41:39;;;;;;;5.82;4.75;;;10.70;99.90;;;;;;5086861;28;20363;-65
2021/12/18 11:44:27;;;;;;;6.60;4.63;;;10.70;99.90;;;;;;5098473;28;20411;-66
2021/12/18 11:46:53;;;;;;;6.00;4.72;;;10.80;99.90;;;;;;5089910;28;20374;-66
2021/12/18 11:49:21;;;;;;;8.05;5.88;;;10.90;99.90;;;;;;5079779;28;20786;-66
2021/12/18 11:52:03;;;;;;;10.20;5.70;;;11.00;99.90;;;;;;5072967;28;20028;-66
2021/12/18 11:54:40;;;;;;;4.75;4.30;;;11.00;99.90;;;;;;5077411;28;20634;-66
2021/12/18 11:57:06;;;;;;;10.00;4.70;;;10.90;99.90;;;;;;5073327;28;20735;-67
2021/12/18 11:59:40;;;;;;;9.57;5.25;;;10.80;99.90;;;;;;5082002;28;20059;-66
2021/12/18 12:02:07;;;;;;;8.52;5.78;;;10.80;99.90;;;;;;5078829;28;20524;-68
2021/12/18 12:05:05;;;;;;;6.32;5.47;;;10.70;99.90;;;;;;5074441;28;20036;-67
2021/12/18 12:07:30;;;;;;;9.35;5.18;;;10.70;99.90;;;;;;5072895;28;20074;-67
2021/12/18 12:10:19;;;;;;;6.22;4.68;;;10.70;99.90;;;;;;5072993;28;20036;-67
2021/12/18 12:12:57;;;;;;;6.15;4.10;;;10.60;99.90;;;;;;5073824;28;20021;-65
2021/12/18 12:15:25;;;;;;;7.45;6.10;;;10.60;99.90;;;;;;5071589;28;20520;-67
2021/12/18 12:18:06;;;;;;;9.45;6.60;;;10.60;99.90;;;;;;5073878;28;20401;-66
2021/12/18 12:20:51;;;;;;;8.27;5.00;;;10.60;99.90;;;;;;5071298;28;20069;-66
2021/12/18 12:23:16;;;;;;;5.50;4.45;;;10.70;99.90;;;;;;5073127;28;20029;-67
2021/12/18 12:25:50;;;;;;;5.95;4.70;;;10.70;99.90;;;;;;5086826;28;20427;-67
2021/12/18 12:28:25;;;;;;;7.70;5.35;;;10.70;99.90;;;;;;5078992;28;20031;-68
2021/12/18 12:30:59;;;;;;;9.98;4.00;;;10.70;99.90;;;;;;5092218;28;20020;-66
2021/12/18 12:33:29;;;;;;;5.95;4.82;;;10.70;99.90;;;;;;5076922;28;20021;-66
2021/12/18 12:36:04;;;;;;;11.55;5.78;;;10.70;99.90;;;;;;5088640;28;20028;-68
2021/12/18 12:38:32;;;;;;;7.70;5.43;;;10.70;99.90;;;;;;5071849;28;20024;-68
2021/12/18 12:41:26;;;;;;;7.82;5.28;;;10.80;99.90;;;;;;5076776;28;20029;-68
2021/12/18 12:43:54;;;;;;;7.30;6.10;;;10.80;99.90;;;;;;5072600;28;20028;-68
2021/12/18 12:46:21;;;;;;;8.45;6.10;;;10.70;99.90;;;;;;5080805;28;20048;-68
2021/12/18 12:49:01;;;;;;;9.65;6.38;;;10.80;99.90;;;;;;5090561;28;20039;-68
2021/12/18 12:51:48;;;;;;;7.45;5.78;;;10.80;99.90;;;;;;5072114;28;20024;-67
2021/12/18 12:54:40;;;;;;;5.47;4.93;;;10.80;99.90;;;;;;5071313;28;20494;-65
2021/12/18 12:57:30;;;;;;;5.22;4.72;;;10.90;99.90;;;;;;5071219;28;20480;-66
2021/12/18 12:59:58;;;;;;;7.57;5.53;;;10.90;99.90;;;;;;5087762;28;20051;-67
2021/12/18 13:02:26;;;;;;;11.45;5.80;;;10.90;99.90;;;;;;5085373;28;20036;-66
2021/12/18 13:05:11;;;;;;;9.45;5.78;;;10.90;99.90;;;;;;5086511;28;20032;-67
2021/12/18 13:07:45;;;;;;;4.70;4.28;;;10.90;99.90;;;;;;5070477;28;20103;-67
2021/12/18 13:10:16;;;;;;;5.43;4.93;;;10.90;99.90;;;;;;5071413;28;20060;-68
2021/12/18 13:12:54;;;;;;;8.35;5.18;;;10.90;99.90;;;;;;5072260;28;20405;-69
2021/12/18 13:15:20;;;;;;;8.70;5.53;;;10.90;99.90;;;;;;5071872;28;20107;-68
2021/12/18 13:17:47;;;;;;;10.73;5.50;;;10.90;99.90;;;;;;5071628;28;20028;-66
2021/12/18 13:20:13;;;;;;;7.97;6.05;;;10.90;99.90;;;;;;5071561;28;20029;-70
2021/12/18 13:22:38;;;;;;;7.93;4.75;;;11.00;99.90;;;;;;5072051;28;20017;-69
2021/12/18 13:25:13;;;;;;;7.57;4.72;;;11.00;99.90;;;;;;5072046;28;20513;-68
2021/12/18 13:28:00;;;;;;;10.82;6.28;;;11.00;99.90;;;;;;5069753;28;20401;-68
2021/12/18 13:30:26;;;;;;;7.97;6.18;;;11.00;99.90;;;;;;5071546;28;20624;-69
2021/12/18 13:32:53;;;;;;;7.65;4.32;;;10.90;99.90;;;;;;5071735;28;20061;-69
2021/12/18 13:35:20;;;;;;;7.63;5.65;;;10.90;99.90;;;;;;5087911;28;20090;-69
2021/12/18 13:37:59;;;;;;;6.05;4.95;;;10.90;99.90;;;;;;5091292;28;20032;-69
2021/12/18 13:40:26;;;;;;;10.13;5.57;;;10.90;99.90;;;;;;5091362;28;20016;-69
2021/12/18 13:43:09;;;;;;;8.50;5.57;;;10.80;99.90;;;;;;5090612;28;20069;-68
2021/12/18 13:45:59;;;;;;;11.18;6.20;;;10.70;99.90;;;;;;5091126;28;20069;-70
2021/12/18 13:48:31;;;;;;;8.82;6.18;;;10.60;99.90;;;;;;5088930;28;20490;-65